Time;durP1;ratioP1;P1;durP2;ratioP2;P2;SDS_P1;SDS_P2;PMS_P1;PMS_P2;Temp;Humidity;BMP_temperature;BMP_pressure;BME280_temperature;BME280_humidity;BME280_pressure;Samples;Min_cycle;Max_cycle;Signal;HPM_P1;HPM_P2
2022/05/05 00:00:01;;;;;;;12.63;6.20;;;6.30;99.90;;;;;;5014122;28;20126;-70
2022/05/05 00:02:27;;;;;;;15.00;6.43;;;6.20;99.90;;;;;;5013279;28;20040;-69
2022/05/05 00:04:53;;;;;;;11.82;6.90;;;6.20;99.90;;;;;;5011833;28;20038;-69
2022/05/05 00:07:19;;;;;;;11.30;6.45;;;6.20;99.90;;;;;;5003478;28;20046;-69
2022/05/05 00:09:45;;;;;;;14.40;6.35;;;6.20;99.90;;;;;;5016783;28;20056;-68
2022/05/05 00:14:55;;;;;;;15.73;6.45;;;6.10;99.90;;;;;;5015954;28;20037;-70
2022/05/05 00:17:21;;;;;;;8.52;5.10;;;6.10;99.90;;;;;;4995603;28;20065;-71
2022/05/05 00:19:47;;;;;;;10.77;5.50;;;6.10;99.90;;;;;;5010029;28;20065;-69
2022/05/05 00:22:13;;;;;;;9.63;5.53;;;6.10;99.90;;;;;;5001092;28;20071;-69
2022/05/05 00:24:39;;;;;;;12.45;6.40;;;6.00;99.90;;;;;;5015050;28;20049;-68
2022/05/05 00:27:06;;;;;;;12.60;7.20;;;6.00;99.90;;;;;;5016293;28;20042;-68
2022/05/05 00:29:32;;;;;;;12.80;7.55;;;6.00;99.90;;;;;;5016480;28;20077;-69
2022/05/05 00:31:58;;;;;;;15.00;6.72;;;6.00;99.90;;;;;;5002568;28;20045;-68
2022/05/05 00:34:24;;;;;;;14.77;7.05;;;6.00;99.90;;;;;;5013670;28;20056;-69
2022/05/05 00:36:50;;;;;;;17.60;7.47;;;6.00;99.90;;;;;;5017023;28;20052;-69
2022/05/05 00:39:16;;;;;;;11.95;7.22;;;6.00;99.90;;;;;;5016328;28;20037;-69
2022/05/05 00:41:45;;;;;;;12.45;6.43;;;6.00;99.90;;;;;;5010651;28;20048;-76
2022/05/05 00:44:12;;;;;;;18.05;7.50;;;5.90;99.90;;;;;;5008537;28;20064;-71
2022/05/05 00:46:38;;;;;;;8.93;6.35;;;5.90;99.90;;;;;;5008470;28;20046;-72
2022/05/05 00:49:04;;;;;;;14.77;7.65;;;5.90;99.90;;;;;;5021257;28;20417;-70
2022/05/05 00:51:31;;;;;;;13.45;7.20;;;5.80;99.90;;;;;;4997532;28;20385;-70
2022/05/05 00:53:57;;;;;;;13.95;7.22;;;5.80;99.90;;;;;;5005822;28;20107;-70
2022/05/05 00:56:24;;;;;;;14.07;7.00;;;5.80;99.90;;;;;;5013716;28;20053;-71
2022/05/05 00:58:52;;;;;;;13.77;6.65;;;5.90;99.90;;;;;;5013215;28;20041;-75
2022/05/05 01:01:20;;;;;;;11.18;6.70;;;5.90;99.90;;;;;;5007531;28;20045;-73
2022/05/05 01:03:47;;;;;;;12.50;6.45;;;5.90;99.90;;;;;;5015611;28;20041;-76
2022/05/05 01:06:14;;;;;;;12.55;6.45;;;5.90;99.90;;;;;;5015463;28;20052;-71
2022/05/05 01:08:41;;;;;;;15.32;7.00;;;5.90;99.90;;;;;;5013074;28;20628;-70
2022/05/05 01:11:07;;;;;;;9.60;6.50;;;5.90;99.90;;;;;;5012220;28;20371;-70
2022/05/05 01:13:38;;;;;;;13.82;7.03;;;5.90;99.90;;;;;;4996403;28;20081;-72
2022/05/05 01:16:06;;;;;;;13.18;7.00;;;5.90;99.90;;;;;;5004857;28;20041;-73
2022/05/05 01:18:32;;;;;;;12.57;6.60;;;5.80;99.90;;;;;;5014445;28;20059;-70
2022/05/05 01:20:58;;;;;;;11.23;6.40;;;5.90;99.90;;;;;;5011206;28;20045;-71
2022/05/05 01:23:24;;;;;;;10.98;6.70;;;5.80;99.90;;;;;;5011637;28;20756;-71
2022/05/05 01:28:39;;;;;;;11.93;6.50;;;5.80;99.90;;;;;;4999598;28;20160;-71
2022/05/05 01:31:07;;;;;;;14.05;6.40;;;5.70;99.90;;;;;;4999587;28;20128;-71
2022/05/05 01:33:34;;;;;;;11.30;6.70;;;5.70;99.90;;;;;;5013190;28;20041;-73
2022/05/05 01:36:00;;;;;;;11.27;7.10;;;5.70;99.90;;;;;;5009855;28;20444;-71
2022/05/05 01:38:40;;;;;;;12.65;6.32;;;5.70;99.90;;;;;;4986370;28;20069;-71
2022/05/05 01:41:11;;;;;;;11.07;7.00;;;5.80;99.90;;;;;;5010606;28;20046;-72
2022/05/05 01:43:39;;;;;;;13.32;6.40;;;5.80;99.90;;;;;;5014896;28;20049;-71
2022/05/05 01:46:06;;;;;;;12.90;6.68;;;5.70;99.90;;;;;;4940832;28;20216;-71
2022/05/05 01:48:36;;;;;;;12.77;6.97;;;5.80;99.90;;;;;;4957056;28;20805;-70
2022/05/05 01:51:03;;;;;;;13.20;6.88;;;5.70;99.90;;;;;;4976586;28;20050;-71
2022/05/05 01:53:36;;;;;;;13.38;6.68;;;5.70;99.90;;;;;;4978104;28;20037;-71
2022/05/05 01:56:11;;;;;;;10.30;6.60;;;5.70;99.90;;;;;;4991982;28;20108;-72
2022/05/05 01:58:38;;;;;;;12.30;6.88;;;5.70;99.90;;;;;;4988185;28;20058;-70
2022/05/05 02:01:06;;;;;;;13.10;7.07;;;5.70;99.90;;;;;;4988144;28;20038;-71
2022/05/05 02:03:33;;;;;;;13.40;7.03;;;5.70;99.90;;;;;;4988538;28;20045;-71
2022/05/05 02:05:59;;;;;;;16.88;7.70;;;5.60;99.90;;;;;;4989802;28;20516;-70
2022/05/05 02:08:25;;;;;;;12.90;7.18;;;5.60;99.90;;;;;;4988146;28;20047;-70
2022/05/05 02:10:52;;;;;;;14.98;8.30;;;5.60;99.90;;;;;;4992722;28;20410;-72
2022/05/05 02:13:19;;;;;;;14.70;7.13;;;5.60;99.90;;;;;;4978720;28;20044;-71
2022/05/05 02:15:45;;;;;;;14.85;7.28;;;5.70;99.90;;;;;;4984407;28;20530;-70
2022/05/05 02:18:13;;;;;;;14.05;7.75;;;5.60;99.90;;;;;;4978432;28;20069;-71
2022/05/05 02:20:40;;;;;;;16.55;8.57;;;5.60;99.90;;;;;;4989436;28;20502;-74
2022/05/05 02:23:07;;;;;;;21.65;9.38;;;5.70;99.90;;;;;;4990056;28;20481;-70
2022/05/05 02:25:34;;;;;;;15.27;8.90;;;5.60;99.90;;;;;;4987118;28;20135;-71
2022/05/05 02:28:00;;;;;;;14.23;8.50;;;5.50;99.90;;;;;;4989319;28;20050;-70
2022/05/05 02:30:28;;;;;;;14.32;7.90;;;5.60;99.90;;;;;;4987038;28;20116;-70
2022/05/05 02:32:54;;;;;;;12.60;8.00;;;5.60;99.90;;;;;;4975720;28;20049;-71
2022/05/05 02:35:21;;;;;;;17.75;8.68;;;5.60;99.90;;;;;;4998099;28;20067;-70
2022/05/05 02:40:32;;;;;;;16.05;8.75;;;5.50;99.90;;;;;;4989268;28;20064;-70
2022/05/05 02:42:59;;;;;;;14.65;8.63;;;5.50;99.90;;;;;;4991685;28;20099;-70
2022/05/05 02:45:26;;;;;;;14.95;8.95;;;5.40;99.90;;;;;;4978758;28;20043;-71
2022/05/05 02:47:52;;;;;;;17.67;9.15;;;5.40;99.90;;;;;;4989107;28;20046;-71
2022/05/05 02:50:19;;;;;;;15.20;9.00;;;5.30;99.90;;;;;;4989019;28;20099;-72
2022/05/05 02:52:45;;;;;;;17.95;8.60;;;5.30;99.90;;;;;;4987788;28;20038;-71
2022/05/05 02:55:12;;;;;;;19.38;8.93;;;5.30;99.90;;;;;;4988873;28;20046;-73
2022/05/05 02:57:38;;;;;;;15.73;8.82;;;5.30;99.90;;;;;;4989672;28;20107;-71
2022/05/05 03:00:11;;;;;;;15.18;9.27;;;5.30;99.90;;;;;;5004401;28;20042;-70
2022/05/05 03:02:38;;;;;;;17.83;8.48;;;5.20;99.90;;;;;;4989824;28;20046;-70
2022/05/05 03:05:04;;;;;;;17.33;8.70;;;5.20;99.90;;;;;;4988906;28;20506;-71
2022/05/05 03:07:30;;;;;;;13.48;7.50;;;5.20;99.90;;;;;;5003591;28;20053;-70
2022/05/05 03:09:57;;;;;;;16.52;8.85;;;5.10;99.90;;;;;;4985211;28;20045;-71
2022/05/05 03:12:23;;;;;;;16.27;8.70;;;5.10;99.90;;;;;;4987231;28;20057;-70
2022/05/05 03:14:49;;;;;;;16.92;9.30;;;5.00;99.90;;;;;;5003907;28;20049;-71
2022/05/05 03:17:15;;;;;;;17.98;9.30;;;5.10;99.90;;;;;;4986713;28;20066;-70
2022/05/05 03:19:42;;;;;;;18.15;9.13;;;5.10;99.90;;;;;;5005888;28;20206;-71
2022/05/05 03:22:09;;;;;;;19.67;10.18;;;5.10;99.90;;;;;;4970488;28;20096;-71
2022/05/05 03:24:35;;;;;;;14.73;8.48;;;5.10;99.90;;;;;;4972116;28;20134;-70
2022/05/05 03:27:01;;;;;;;17.15;9.23;;;5.10;99.90;;;;;;5006334;28;20124;-71
2022/05/05 03:29:28;;;;;;;16.27;8.98;;;5.10;99.90;;;;;;4973116;28;20474;-71
2022/05/05 03:31:54;;;;;;;16.92;8.88;;;5.00;99.90;;;;;;4987927;28;20033;-71
2022/05/05 03:34:20;;;;;;;17.00;9.40;;;5.00;99.90;;;;;;5007020;28;20501;-71
2022/05/05 03:36:46;;;;;;;17.70;10.27;;;5.10;99.90;;;;;;4987769;28;20549;-72
2022/05/05 03:39:12;;;;;;;18.67;9.95;;;5.20;99.90;;;;;;4987642;28;20477;-73
2022/05/05 03:41:37;;;;;;;16.17;9.00;;;5.30;99.90;;;;;;5004748;28;20045;-71
2022/05/05 03:44:05;;;;;;;17.33;9.63;;;5.40;99.90;;;;;;5002182;28;20042;-73
2022/05/05 03:46:32;;;;;;;17.20;9.27;;;5.40;99.90;;;;;;5006965;28;20042;-71
2022/05/05 03:48:58;;;;;;;14.82;8.55;;;5.50;99.90;;;;;;4973208;28;20034;-71
2022/05/05 03:51:24;;;;;;;15.63;8.95;;;5.50;99.90;;;;;;4991335;28;20482;-73
2022/05/05 03:53:51;;;;;;;17.20;10.02;;;5.40;99.90;;;;;;4955451;28;20070;-72
2022/05/05 03:56:17;;;;;;;15.95;8.95;;;5.50;99.90;;;;;;4972875;28;20546;-71
2022/05/05 03:58:42;;;;;;;16.38;8.85;;;5.60;99.90;;;;;;4970748;28;20133;-71
2022/05/05 04:01:09;;;;;;;15.23;10.07;;;5.50;99.90;;;;;;4988725;28;20050;-71
2022/05/05 04:03:41;;;;;;;18.65;10.68;;;5.60;99.90;;;;;;5002145;28;20050;-72
2022/05/05 04:06:07;;;;;;;18.95;9.00;;;5.70;99.90;;;;;;4975825;28;20049;-71
2022/05/05 04:08:36;;;;;;;17.27;9.32;;;5.60;99.90;;;;;;4976234;28;20541;-72
2022/05/05 04:11:02;;;;;;;19.67;11.25;;;5.60;99.90;;;;;;4996558;28;20046;-71
2022/05/05 04:13:28;;;;;;;19.33;11.68;;;5.70;99.90;;;;;;4995409;28;20077;-70
2022/05/05 04:15:54;;;;;;;18.35;10.60;;;5.80;99.90;;;;;;4994299;28;20042;-71
2022/05/05 04:18:20;;;;;;;22.73;11.48;;;5.80;99.90;;;;;;4993048;28;20057;-70
2022/05/05 04:20:49;;;;;;;19.38;11.52;;;6.10;99.90;;;;;;4986051;28;20085;-71
2022/05/05 04:23:15;;;;;;;18.40;10.90;;;6.20;99.90;;;;;;5008200;28;20034;-71
2022/05/05 04:25:42;;;;;;;22.45;10.95;;;6.10;99.90;;;;;;4990880;28;20041;-70
2022/05/05 04:28:09;;;;;;;18.73;11.20;;;6.20;99.90;;;;;;5001051;28;20056;-71
2022/05/05 04:30:37;;;;;;;19.00;11.32;;;6.30;99.90;;;;;;4959758;28;20061;-71
2022/05/05 04:33:03;;;;;;;21.38;11.35;;;6.30;99.90;;;;;;4978695;28;20061;-71
2022/05/05 04:35:30;;;;;;;22.02;11.82;;;6.40;99.90;;;;;;5012401;28;20046;-71
2022/05/05 04:37:56;;;;;;;21.30;12.00;;;6.50;99.90;;;;;;4992622;28;20045;-70
2022/05/05 04:40:22;;;;;;;20.08;11.70;;;6.50;99.90;;;;;;4994139;28;20184;-71
2022/05/05 04:42:48;;;;;;;23.08;11.68;;;6.60;99.90;;;;;;4990363;28;20124;-71
2022/05/05 04:45:14;;;;;;;20.83;11.68;;;6.70;99.90;;;;;;4989296;28;20471;-71
2022/05/05 04:47:40;;;;;;;19.25;11.77;;;6.70;99.90;;;;;;4990480;28;20045;-71
2022/05/05 04:50:06;;;;;;;21.33;11.93;;;6.80;99.90;;;;;;4989457;28;20104;-71
2022/05/05 04:52:33;;;;;;;20.38;11.57;;;6.80;99.90;;;;;;5006450;28;20921;-70
2022/05/05 04:55:00;;;;;;;24.60;12.23;;;6.90;99.90;;;;;;4987321;28;20041;-71
2022/05/05 04:57:26;;;;;;;22.65;12.13;;;7.00;99.90;;;;;;4990573;28;20050;-71
2022/05/05 04:59:52;;;;;;;20.70;11.73;;;7.00;99.90;;;;;;4973420;28;20092;-72
2022/05/05 05:02:18;;;;;;;21.15;12.40;;;7.10;99.90;;;;;;4991318;28;20058;-71
2022/05/05 05:04:44;;;;;;;23.42;11.90;;;7.10;99.90;;;;;;4990319;28;20425;-70
2022/05/05 05:07:10;;;;;;;21.80;12.10;;;7.20;99.90;;;;;;4990565;28;20431;-73
2022/05/05 05:09:36;;;;;;;18.17;11.73;;;7.20;99.90;;;;;;4989046;28;20422;-71
2022/05/05 05:12:02;;;;;;;19.05;11.93;;;7.30;99.90;;;;;;4990678;28;20161;-72
2022/05/05 05:14:28;;;;;;;21.08;12.35;;;7.40;99.90;;;;;;5005699;28;20125;-73
2022/05/05 05:16:54;;;;;;;20.85;12.32;;;7.50;99.90;;;;;;4973162;28;20132;-70
2022/05/05 05:19:20;;;;;;;21.20;12.27;;;7.50;99.90;;;;;;4989749;28;20042;-71
2022/05/05 05:21:47;;;;;;;20.23;12.15;;;7.50;99.90;;;;;;5006476;28;20368;-71
2022/05/05 05:24:13;;;;;;;26.30;13.45;;;7.50;99.90;;;;;;4957733;28;20101;-71
2022/05/05 05:26:40;;;;;;;21.33;13.35;;;7.60;99.90;;;;;;4989683;28;20494;-72
2022/05/05 05:29:06;;;;;;;19.73;12.48;;;7.60;99.90;;;;;;4988658;28;20386;-71
2022/05/05 05:31:32;;;;;;;26.85;12.80;;;7.70;99.90;;;;;;4990932;28;20038;-71
2022/05/05 05:33:59;;;;;;;21.60;11.45;;;7.70;99.90;;;;;;4964170;28;20085;-71
2022/05/05 05:36:25;;;;;;;20.92;13.00;;;7.70;99.90;;;;;;4989220;28;20046;-71
2022/05/05 05:38:51;;;;;;;20.90;12.30;;;7.90;99.90;;;;;;4988123;28;20122;-71
2022/05/05 05:41:17;;;;;;;23.92;12.05;;;7.90;99.90;;;;;;4990706;28;20042;-70
2022/05/05 05:43:43;;;;;;;21.70;12.35;;;8.00;99.90;;;;;;4973618;28;20050;-70
2022/05/05 05:46:09;;;;;;;23.02;12.40;;;8.10;99.90;;;;;;4972003;28;20493;-71
2022/05/05 05:48:38;;;;;;;24.50;12.05;;;8.10;99.90;;;;;;5006745;28;20046;-72
2022/05/05 05:51:05;;;;;;;21.27;12.30;;;8.20;99.90;;;;;;4988814;28;20365;-72
2022/05/05 05:53:31;;;;;;;18.98;12.40;;;8.30;99.90;;;;;;4960270;28;20495;-71
2022/05/05 05:55:57;;;;;;;24.40;13.40;;;8.30;99.90;;;;;;4990671;28;20045;-71
2022/05/05 05:58:23;;;;;;;21.58;12.13;;;8.30;99.90;;;;;;4987825;28;20046;-72
2022/05/05 06:00:49;;;;;;;19.13;12.45;;;8.40;99.90;;;;;;4989867;28;20053;-71
2022/05/05 06:06:03;;;;;;;25.23;12.75;;;8.70;99.90;;;;;;4976629;28;20042;-70
2022/05/05 06:08:30;;;;;;;28.65;12.25;;;8.80;99.90;;;;;;4980847;28;20107;-70
2022/05/05 06:10:56;;;;;;;21.75;12.10;;;8.90;99.90;;;;;;4977354;28;20132;-71
2022/05/05 06:13:22;;;;;;;23.88;12.02;;;9.00;99.90;;;;;;4995053;28;20129;-71
2022/05/05 06:15:48;;;;;;;23.60;12.40;;;9.10;99.90;;;;;;4991626;28;20053;-71
2022/05/05 06:18:14;;;;;;;26.13;12.55;;;9.20;99.90;;;;;;4992527;28;20054;-71
2022/05/05 06:20:40;;;;;;;21.00;12.88;;;9.30;99.90;;;;;;4993746;28;20162;-72
2022/05/05 06:23:06;;;;;;;25.48;12.32;;;9.40;99.90;;;;;;5012154;28;20077;-70
2022/05/05 06:25:32;;;;;;;19.95;11.88;;;9.60;99.90;;;;;;5010725;28;20049;-70
2022/05/05 06:27:58;;;;;;;18.73;11.60;;;9.60;99.90;;;;;;4997061;28;20111;-71
2022/05/05 06:30:24;;;;;;;22.20;12.07;;;9.70;99.90;;;;;;4993302;28;20494;-71
2022/05/05 06:32:50;;;;;;;28.30;12.73;;;9.80;99.90;;;;;;5003271;28;20048;-70
2022/05/05 06:35:17;;;;;;;28.20;12.93;;;9.90;99.90;;;;;;4971040;28;20048;-70
2022/05/05 06:37:43;;;;;;;19.52;11.13;;;9.90;99.90;;;;;;4961969;28;20045;-70
2022/05/05 06:40:09;;;;;;;22.55;12.80;;;9.90;99.90;;;;;;4986858;28;20124;-71
2022/05/05 06:42:35;;;;;;;24.52;12.13;;;10.00;99.90;;;;;;5008539;28;20126;-69
2022/05/05 06:45:03;;;;;;;23.50;11.40;;;10.10;99.90;;;;;;4989753;28;20080;-73
2022/05/05 06:47:29;;;;;;;20.48;10.93;;;10.10;99.90;;;;;;5003748;28;20180;-71
2022/05/05 06:49:55;;;;;;;19.60;10.98;;;10.20;99.90;;;;;;4975871;28;20045;-71
2022/05/05 06:52:21;;;;;;;17.33;10.38;;;10.30;99.90;;;;;;4991336;28;20073;-72
2022/05/05 06:54:47;;;;;;;21.10;11.32;;;10.30;99.90;;;;;;4982557;28;20505;-72
2022/05/05 06:57:14;;;;;;;21.25;10.80;;;10.40;99.90;;;;;;4976857;28;20041;-70
2022/05/05 06:59:40;;;;;;;21.25;10.95;;;10.60;99.90;;;;;;4986390;28;20159;-73
2022/05/05 07:02:07;;;;;;;18.77;10.52;;;10.60;99.90;;;;;;4988758;28;20045;-72
2022/05/05 07:07:20;;;;;;;21.73;11.23;;;10.70;99.90;;;;;;4994207;28;20488;-71
2022/05/05 07:12:33;;;;;;;18.70;11.88;;;10.90;99.90;;;;;;4984254;28;20077;-71
2022/05/05 07:14:59;;;;;;;18.65;11.82;;;11.00;99.90;;;;;;4990382;28;20046;-72
2022/05/05 07:17:26;;;;;;;18.95;11.93;;;11.10;99.90;;;;;;4973358;28;20053;-71
2022/05/05 07:19:53;;;;;;;16.48;10.73;;;11.20;99.90;;;;;;5000258;28;20038;-73
2022/05/05 07:22:19;;;;;;;19.73;10.77;;;11.30;99.90;;;;;;4993282;28;20056;-71
2022/05/05 07:24:46;;;;;;;21.98;12.02;;;11.30;99.90;;;;;;4994011;28;20125;-71
2022/05/05 07:27:13;;;;;;;20.73;11.77;;;11.40;99.90;;;;;;4974612;28;20061;-73
2022/05/05 07:29:40;;;;;;;19.13;11.40;;;11.40;99.90;;;;;;4988860;28;20113;-71
2022/05/05 07:32:07;;;;;;;16.67;9.90;;;11.40;99.90;;;;;;4987551;28;20042;-72
2022/05/05 07:34:36;;;;;;;18.48;11.18;;;11.50;99.90;;;;;;4978427;28;20096;-71
2022/05/05 07:37:02;;;;;;;19.02;11.45;;;11.70;99.90;;;;;;4991526;28;20042;-71
2022/05/05 07:39:29;;;;;;;22.63;10.90;;;11.90;99.90;;;;;;4992662;28;20049;-73
2022/05/05 07:41:55;;;;;;;15.10;10.23;;;12.00;99.90;;;;;;4995081;28;20092;-72
2022/05/05 07:44:21;;;;;;;16.52;10.48;;;12.10;99.90;;;;;;5010584;28;20109;-72
2022/05/05 07:46:47;;;;;;;18.83;10.98;;;12.20;99.90;;;;;;5011163;28;20367;-72
2022/05/05 07:49:14;;;;;;;17.30;10.02;;;12.40;99.90;;;;;;5005388;28;20129;-73
2022/05/05 07:51:40;;;;;;;12.73;9.93;;;12.60;99.90;;;;;;4978268;28;20051;-73
2022/05/05 07:56:51;;;;;;;16.20;11.00;;;12.70;99.90;;;;;;4996212;28;20053;-73
2022/05/05 07:59:19;;;;;;;16.23;9.85;;;12.80;99.90;;;;;;4960553;28;20041;-72
2022/05/05 08:01:46;;;;;;;16.88;10.00;;;12.90;99.90;;;;;;5011746;28;20045;-72
2022/05/05 08:04:12;;;;;;;18.77;9.85;;;12.90;99.90;;;;;;4996977;28;20104;-73
2022/05/05 08:06:38;;;;;;;18.45;10.32;;;12.80;99.90;;;;;;4998226;28;20045;-71
2022/05/05 08:09:04;;;;;;;19.38;9.38;;;12.90;99.90;;;;;;4979560;28;20046;-73
2022/05/05 08:11:30;;;;;;;17.35;9.77;;;13.00;99.90;;;;;;4991170;28;20042;-74
2022/05/05 08:13:56;;;;;;;15.85;8.98;;;13.20;99.90;;;;;;4996208;28;20117;-72
2022/05/05 08:16:23;;;;;;;14.18;9.65;;;13.40;99.90;;;;;;5004960;28;20497;-72
2022/05/05 08:18:49;;;;;;;16.88;10.75;;;13.60;99.90;;;;;;4994636;28;20140;-72
2022/05/05 08:21:15;;;;;;;16.80;9.38;;;13.80;99.90;;;;;;4995217;28;20132;-72
2022/05/05 08:23:42;;;;;;;14.73;9.15;;;13.80;99.90;;;;;;4995987;28;20125;-73
2022/05/05 08:28:55;;;;;;;11.90;8.65;;;13.90;99.90;;;;;;4972455;28;20042;-72
2022/05/05 08:31:21;;;;;;;16.98;8.45;;;14.10;99.90;;;;;;4984609;28;20425;-72
2022/05/05 08:33:47;;;;;;;15.00;8.95;;;14.20;99.90;;;;;;4995315;28;20133;-73
2022/05/05 08:36:13;;;;;;;14.82;8.60;;;14.20;99.90;;;;;;4961788;28;20074;-72
2022/05/05 08:38:39;;;;;;;14.23;7.10;;;14.30;99.90;;;;;;4954798;28;20045;-73
2022/05/05 08:41:11;;;;;;;13.38;7.97;;;14.50;99.90;;;;;;4991911;28;20042;-72
2022/05/05 08:43:36;;;;;;;;;;;14.50;99.90;;;;;;4991066;28;20111;-71
2022/05/05 08:46:03;;;;;;;16.08;8.07;;;14.40;99.90;;;;;;4995195;28;20016;-76
2022/05/05 08:48:31;;;;;;;14.93;7.78;;;14.60;99.90;;;;;;4980453;28;20069;-76
2022/05/05 08:51:00;;;;;;;13.05;7.50;;;14.70;99.90;;;;;;4978289;28;20042;-77
2022/05/05 08:53:32;;;;;;;11.75;7.47;;;14.80;99.90;;;;;;4996857;28;20055;-73
2022/05/05 08:56:00;;;;;;;13.63;7.22;;;15.00;99.90;;;;;;4992899;28;20132;-72
2022/05/05 08:58:27;;;;;;;18.02;8.07;;;15.00;99.90;;;;;;4991401;28;20045;-72
2022/05/05 09:00:53;;;;;;;13.32;7.95;;;15.20;99.90;;;;;;4991780;28;20041;-73
2022/05/05 09:03:19;;;;;;;14.73;8.38;;;15.40;99.90;;;;;;4991524;28;20099;-72
2022/05/05 09:05:48;;;;;;;12.77;8.02;;;15.60;99.90;;;;;;4991190;28;20046;-72
2022/05/05 09:08:26;;;;;;;13.32;8.48;;;15.80;99.90;;;;;;5010835;28;20058;-72
2022/05/05 09:10:57;;;;;;;12.57;8.45;;;16.00;99.90;;;;;;4989983;28;20474;-85
2022/05/05 09:13:27;;;;;;;15.05;9.00;;;16.20;99.90;;;;;;4986939;28;20121;-77
2022/05/05 09:15:53;;;;;;;12.65;9.05;;;16.10;99.90;;;;;;4971246;28;20046;-74
2022/05/05 09:18:28;;;;;;;17.55;9.40;;;16.20;99.90;;;;;;4983278;28;20109;-79
2022/05/05 09:20:54;;;;;;;12.73;8.18;;;16.30;99.90;;;;;;4975089;28;20049;-73
2022/05/05 09:23:32;;;;;;;12.40;8.18;;;16.50;99.90;;;;;;4993676;28;20620;-73
2022/05/05 09:26:04;;;;;;;13.48;7.38;;;16.60;99.80;;;;;;5010459;28;20049;-73
2022/05/05 09:28:32;;;;;;;11.13;7.00;;;16.40;98.50;;;;;;4995982;28;20045;-73
2022/05/05 09:31:04;;;;;;;9.50;6.72;;;16.40;98.20;;;;;;4992939;28;20045;-73
2022/05/05 09:33:42;;;;;;;11.15;6.85;;;16.60;92.50;;;;;;4983132;28;20038;-73
2022/05/05 09:36:10;;;;;;;12.82;7.88;;;16.90;81.10;;;;;;4966449;28;20088;-69
2022/05/05 09:38:56;;;;;;;10.80;7.35;;;17.10;93.90;;;;;;5003329;28;20096;-70
2022/05/05 09:41:34;;;;;;;9.18;6.90;;;17.10;94.50;;;;;;4981099;28;20046;-73
2022/05/05 09:44:27;;;;;;;8.98;6.53;;;16.60;92.00;;;;;;4974749;28;20498;-69
2022/05/05 09:46:53;;;;;;;10.00;6.07;;;17.00;93.30;;;;;;5002847;28;20070;-70
2022/05/05 09:49:20;;;;;;;11.57;6.28;;;17.20;91.80;;;;;;4994639;28;20076;-70
2022/05/05 09:57:41;;;;;;;9.30;6.07;;;17.30;76.70;;;;;;4997377;28;20049;-69
2022/05/05 10:05:51;;;;;;;12.35;7.18;;;17.50;78.00;;;;;;4991647;28;20604;-69
2022/05/05 10:08:23;;;;;;;10.63;6.63;;;17.30;86.90;;;;;;4979043;28;20491;-69
2022/05/05 10:10:49;;;;;;;9.48;6.88;;;17.10;82.80;;;;;;5008050;28;20085;-70
2022/05/05 10:13:20;;;;;;;10.43;6.85;;;17.30;84.10;;;;;;4993004;28;20044;-69
2022/05/05 10:15:49;;;;;;;10.60;7.15;;;17.40;80.70;;;;;;4991712;28;20054;-69
2022/05/05 10:18:17;;;;;;;9.93;6.53;;;17.30;90.50;;;;;;5006303;28;20057;-70
2022/05/05 10:20:43;;;;;;;9.65;7.18;;;17.70;82.80;;;;;;4993914;28;20105;-71
2022/05/05 10:23:22;;;;;;;12.57;7.60;;;17.70;80.20;;;;;;4969110;28;20379;-70
2022/05/05 10:25:55;;;;;;;10.05;7.18;;;17.60;71.20;;;;;;4990295;28;20116;-72
2022/05/05 10:28:44;;;;;;;10.05;6.65;;;17.80;73.50;;;;;;4990849;28;20491;-70
2022/05/05 10:31:37;;;;;;;11.15;6.85;;;18.20;72.20;;;;;;4993017;28;20450;-69
2022/05/05 10:34:18;;;;;;;12.25;7.20;;;18.70;67.70;;;;;;4977939;28;20399;-69
2022/05/05 10:36:58;;;;;;;12.27;7.30;;;18.50;69.60;;;;;;4991677;28;20042;-69
2022/05/05 10:39:26;;;;;;;10.63;7.32;;;18.50;66.90;;;;;;4996492;28;20077;-71
2022/05/05 10:42:18;;;;;;;12.25;7.80;;;19.00;68.90;;;;;;4988158;28;20410;-70
2022/05/05 10:45:16;;;;;;;10.27;7.25;;;18.60;69.50;;;;;;5006812;28;20052;-69
2022/05/05 10:48:01;;;;;;;10.35;7.82;;;18.70;73.60;;;;;;4988754;28;20046;-73
2022/05/05 10:50:29;;;;;;;11.40;7.63;;;19.10;70.00;;;;;;4971258;28;20125;-70
2022/05/05 10:52:56;;;;;;;11.70;7.57;;;19.10;69.40;;;;;;4989277;28;20046;-72
2022/05/05 10:55:34;;;;;;;13.43;8.18;;;18.80;69.20;;;;;;4986919;28;20048;-71
2022/05/05 10:58:00;;;;;;;12.38;7.63;;;19.30;67.40;;;;;;4994440;28;20038;-70
2022/05/05 11:00:40;;;;;;;14.18;8.15;;;19.30;68.20;;;;;;4976811;28;20124;-71
2022/05/05 11:03:09;;;;;;;13.95;8.25;;;19.50;71.50;;;;;;4986866;28;20045;-70
2022/05/05 11:05:38;;;;;;;13.35;8.90;;;19.50;68.80;;;;;;4990245;28;20049;-70
2022/05/05 11:08:19;;;;;;;10.35;7.38;;;19.70;67.00;;;;;;4988571;28;20095;-69
2022/05/05 11:13:42;;;;;;;12.52;7.90;;;19.80;65.10;;;;;;5007365;28;20057;-70
2022/05/05 11:22:25;;;;;;;10.70;7.93;;;20.40;63.80;;;;;;4976557;28;20061;-69
2022/05/05 11:24:52;;;;;;;12.63;7.95;;;19.90;62.70;;;;;;4962784;28;20101;-69
2022/05/05 11:27:21;;;;;;;11.82;8.18;;;19.90;63.20;;;;;;4978700;28;20054;-69
2022/05/05 11:29:55;;;;;;;9.98;7.30;;;20.70;62.50;;;;;;4978168;28;20046;-70
2022/05/05 11:32:29;;;;;;;10.90;7.90;;;20.30;60.90;;;;;;4970091;28;20580;-70
2022/05/05 11:34:55;;;;;;;10.88;7.88;;;20.40;61.90;;;;;;4972685;28;20070;-70
2022/05/05 11:37:25;;;;;;;11.50;7.57;;;20.70;60.60;;;;;;4971885;28;20082;-70
2022/05/05 11:39:51;;;;;;;10.50;7.80;;;21.10;59.70;;;;;;4988690;28;20398;-70
2022/05/05 11:42:18;;;;;;;11.60;7.72;;;21.40;59.80;;;;;;4988590;28;20053;-74
2022/05/05 11:44:45;;;;;;;13.27;7.80;;;21.20;59.40;;;;;;4971727;28;20073;-69
2022/05/05 11:47:22;;;;;;;11.18;7.53;;;21.60;59.50;;;;;;4973031;28;20058;-70
2022/05/05 11:49:57;;;;;;;10.07;7.30;;;21.90;57.40;;;;;;4973232;28;20097;-69
2022/05/05 11:52:24;;;;;;;9.65;7.13;;;22.10;57.90;;;;;;4972538;28;20053;-72
2022/05/05 11:54:54;;;;;;;9.85;7.00;;;22.20;57.80;;;;;;4971720;28;20149;-69
2022/05/05 11:57:33;;;;;;;10.20;7.35;;;22.40;57.00;;;;;;4957371;28;20069;-70
2022/05/05 12:02:45;;;;;;;13.95;7.88;;;21.90;56.30;;;;;;4994169;28;20054;-69
2022/05/05 12:05:12;;;;;;;10.20;7.70;;;22.20;56.40;;;;;;4994137;28;20053;-70
2022/05/05 12:07:41;;;;;;;11.55;8.10;;;22.50;56.20;;;;;;4991336;28;20051;-70
2022/05/05 12:10:09;;;;;;;13.50;7.82;;;22.20;56.90;;;;;;4973186;28;20568;-70
2022/05/05 12:12:37;;;;;;;11.23;7.28;;;22.30;57.60;;;;;;4957053;28;20049;-71
2022/05/05 12:15:08;;;;;;;11.95;7.32;;;21.70;57.00;;;;;;4973609;28;20054;-71
2022/05/05 12:17:41;;;;;;;11.75;8.23;;;21.80;57.20;;;;;;4971666;28;20425;-72
2022/05/05 12:20:09;;;;;;;9.75;7.25;;;22.40;56.10;;;;;;5013182;28;20127;-70
2022/05/05 12:22:38;;;;;;;11.73;8.00;;;22.70;55.00;;;;;;4996649;28;20157;-71
2022/05/05 12:25:07;;;;;;;9.70;7.30;;;22.90;57.00;;;;;;4990660;28;20050;-71
2022/05/05 12:27:34;;;;;;;9.27;6.97;;;22.80;56.40;;;;;;4974630;28;20049;-69
2022/05/05 12:30:01;;;;;;;11.43;7.97;;;23.60;55.70;;;;;;4991485;28;20049;-70
2022/05/05 12:32:28;;;;;;;11.15;7.50;;;24.00;54.60;;;;;;4977144;28;20060;-70
2022/05/05 12:35:33;;;;;;;11.40;8.63;;;24.70;54.80;;;;;;5013229;28;20188;-71
2022/05/05 12:38:01;;;;;;;13.07;8.45;;;24.30;49.80;;;;;;4996862;28;20156;-71
2022/05/05 12:40:28;;;;;;;11.57;7.80;;;23.90;54.00;;;;;;4996038;28;20053;-71
2022/05/05 12:43:06;;;;;;;9.93;6.88;;;23.80;54.80;;;;;;4994467;28;20581;-70
2022/05/05 12:45:34;;;;;;;9.95;6.97;;;24.30;53.10;;;;;;4990848;28;20056;-71
2022/05/05 12:48:03;;;;;;;12.00;8.27;;;24.70;54.00;;;;;;4991997;28;20045;-73
2022/05/05 12:50:37;;;;;;;11.05;7.72;;;24.50;52.20;;;;;;5007279;28;20061;-70
2022/05/05 13:01:30;;;;;;;9.45;6.63;;;25.50;50.60;;;;;;4996300;28;20526;-71
2022/05/05 13:04:05;;;;;;;10.10;7.20;;;25.50;49.80;;;;;;5011930;28;20124;-69
2022/05/05 13:06:39;;;;;;;10.40;7.30;;;25.50;49.00;;;;;;4989664;28;20069;-70
2022/05/05 13:09:08;;;;;;;10.43;8.45;;;25.50;49.00;;;;;;4991155;28;20099;-70
2022/05/05 13:11:38;;;;;;;10.65;8.95;;;25.10;49.90;;;;;;4990721;28;20181;-72
2022/05/05 13:14:04;;;;;;;10.20;8.83;;;24.80;50.00;;;;;;4989962;28;20790;-72
2022/05/05 13:16:31;;;;;;;12.80;8.60;;;24.70;49.60;;;;;;4991857;28;20103;-68
2022/05/05 13:18:58;;;;;;;10.88;9.05;;;24.70;49.60;;;;;;4990077;28;20057;-68
2022/05/05 13:21:26;;;;;;;13.05;8.52;;;24.30;50.00;;;;;;4973832;28;20495;-67
2022/05/05 13:23:52;;;;;;;11.88;8.43;;;24.50;50.00;;;;;;4991773;28;20084;-68
2022/05/05 13:26:18;;;;;;;10.93;9.05;;;24.40;50.90;;;;;;4974662;28;20050;-72
2022/05/05 13:28:44;;;;;;;14.18;9.20;;;24.20;50.60;;;;;;4990757;28;20046;-68
2022/05/05 13:31:10;;;;;;;14.77;9.45;;;24.10;51.70;;;;;;4989563;28;20386;-69
2022/05/05 13:33:36;;;;;;;11.93;9.30;;;24.20;52.40;;;;;;4991107;28;20046;-68
2022/05/05 13:36:03;;;;;;;13.55;9.43;;;24.30;52.40;;;;;;4957469;28;20056;-67
2022/05/05 13:38:29;;;;;;;10.93;8.57;;;24.20;51.50;;;;;;5001014;28;20048;-67